createdAt,value
2022-11-03T00:01:15.104Z,18.50
2022-11-03T00:03:41.813Z,18.50
2022-11-03T00:06:08.613Z,18.50
2022-11-03T00:08:40.963Z,18.50
2022-11-03T00:11:12.930Z,18.50
2022-11-03T00:13:42.081Z,18.50
2022-11-03T00:16:11.387Z,18.50
2022-11-03T00:18:38.862Z,18.50
2022-11-03T00:21:10.365Z,18.50
2022-11-03T00:23:42.174Z,18.50
2022-11-03T00:26:22.918Z,18.40
2022-11-03T00:28:57.943Z,18.50
2022-11-03T00:31:35.712Z,18.40
2022-11-03T00:34:03.465Z,18.40
2022-11-03T00:36:36.311Z,18.40
2022-11-03T00:39:04.640Z,18.40
2022-11-03T00:41:32.018Z,18.50
2022-11-03T00:43:59.013Z,18.40
2022-11-03T00:46:26.894Z,18.40
2022-11-03T00:48:53.560Z,18.40
2022-11-03T00:51:23.066Z,18.40
2022-11-03T00:53:55.080Z,18.40
2022-11-03T00:56:34.598Z,18.40
2022-11-03T00:59:02.260Z,18.40
2022-11-03T01:01:43.899Z,18.40
2022-11-03T01:04:30.280Z,18.40
2022-11-03T01:06:58.370Z,18.40
2022-11-03T01:09:43.441Z,18.40
2022-11-03T01:12:15.342Z,18.40
2022-11-03T01:14:49.609Z,18.40
2022-11-03T01:17:17.595Z,18.40
2022-11-03T01:19:44.461Z,18.40
2022-11-03T01:22:12.059Z,18.40
2022-11-03T01:24:43.592Z,18.30
2022-11-03T01:27:13.047Z,18.30
2022-11-03T01:29:40.252Z,18.40
2022-11-03T01:32:08.305Z,18.40
2022-11-03T01:34:35.351Z,18.40
2022-11-03T01:37:02.050Z,18.30
2022-11-03T01:39:28.759Z,18.40
2022-11-03T01:41:55.434Z,18.30
2022-11-03T01:44:36.837Z,18.30
2022-11-03T01:47:07.504Z,18.30
2022-11-03T01:49:43.107Z,18.30
2022-11-03T01:52:17.349Z,18.30
2022-11-03T01:54:47.731Z,18.30
2022-11-03T01:57:19.879Z,18.30
2022-11-03T01:59:48.148Z,18.30
2022-11-03T02:02:14.966Z,18.30
2022-11-03T02:04:42.805Z,18.30
2022-11-03T02:07:22.513Z,18.30
2022-11-03T02:09:49.463Z,18.30
2022-11-03T02:12:16.544Z,18.30
2022-11-03T02:14:49.600Z,18.30
2022-11-03T02:17:17.826Z,18.30
2022-11-03T02:19:49.164Z,17.00
2022-11-03T02:22:40.705Z,18.30
2022-11-03T02:25:31.331Z,18.30
2022-11-03T02:27:58.750Z,18.30
2022-11-03T02:30:34.377Z,18.30
2022-11-03T02:33:35.565Z,18.20
2022-11-03T02:36:16.790Z,18.30
2022-11-03T02:38:54.157Z,18.30
2022-11-03T02:41:21.986Z,18.30
2022-11-03T02:43:49.781Z,18.30
2022-11-03T02:46:18.281Z,18.30
2022-11-03T02:48:45.684Z,18.30
2022-11-03T02:51:12.272Z,18.20
2022-11-03T02:53:46.110Z,18.30
2022-11-03T02:56:20.102Z,18.20
2022-11-03T02:58:54.603Z,18.20
2022-11-03T03:01:46.689Z,18.20
2022-11-03T03:04:30.210Z,18.20
2022-11-03T03:07:22.288Z,18.30
2022-11-03T03:10:08.150Z,18.20
2022-11-03T03:12:37.825Z,18.20
2022-11-03T03:15:07.104Z,18.20
2022-11-03T03:17:58.923Z,18.30
2022-11-03T03:20:33.902Z,18.20
2022-11-03T03:23:18.642Z,18.20
2022-11-03T03:25:55.456Z,18.20
2022-11-03T03:28:49.399Z,18.20
2022-11-03T03:31:19.223Z,18.20
2022-11-03T03:33:48.877Z,18.20
2022-11-03T03:36:18.763Z,18.20
2022-11-03T03:38:50.693Z,18.20
2022-11-03T03:41:21.857Z,18.20
2022-11-03T03:43:55.521Z,18.20
2022-11-03T03:46:25.628Z,18.20
2022-11-03T03:48:52.221Z,18.20
2022-11-03T03:51:23.345Z,18.20
2022-11-03T03:53:52.272Z,18.10
2022-11-03T03:56:43.466Z,18.20
2022-11-03T03:59:10.078Z,18.20
2022-11-03T04:01:36.772Z,18.10
2022-11-03T04:04:03.651Z,18.20
2022-11-03T04:06:30.624Z,18.10
2022-11-03T04:08:57.261Z,18.10
2022-11-03T04:11:42.615Z,18.10
2022-11-03T04:14:30.521Z,18.10
2022-11-03T04:17:15.869Z,18.10
2022-11-03T04:20:01.139Z,18.20
2022-11-03T04:22:32.521Z,18.10
2022-11-03T04:24:59.786Z,18.10
2022-11-03T04:27:33.606Z,18.10
2022-11-03T04:30:09.109Z,18.10
2022-11-03T04:32:37.000Z,18.10
2022-11-03T04:35:14.431Z,18.10
2022-11-03T04:37:45.024Z,18.10
2022-11-03T04:40:17.947Z,18.10
2022-11-03T04:42:45.387Z,18.10
2022-11-03T04:45:25.976Z,18.10
2022-11-03T04:47:53.815Z,18.10
2022-11-03T04:50:22.994Z,18.10
2022-11-03T04:52:56.223Z,18.10
2022-11-03T04:55:23.211Z,18.10
2022-11-03T04:57:54.570Z,18.10
2022-11-03T05:00:21.270Z,18.10
2022-11-03T05:02:53.106Z,18.10
2022-11-03T05:05:26.044Z,18.10
2022-11-03T05:07:55.276Z,18.10
2022-11-03T05:10:25.750Z,18.10
2022-11-03T05:12:54.287Z,18.00
2022-11-03T05:15:36.045Z,18.10
2022-11-03T05:18:15.473Z,18.10
2022-11-03T05:20:58.314Z,18.00
2022-11-03T05:23:27.566Z,18.00
2022-11-03T05:25:57.572Z,18.10
2022-11-03T05:28:26.108Z,18.00
2022-11-03T05:30:53.428Z,18.00
2022-11-03T05:33:31.017Z,18.00
2022-11-03T05:36:00.779Z,18.10
2022-11-03T05:38:31.080Z,18.00
2022-11-03T05:40:58.612Z,18.00
2022-11-03T05:43:26.420Z,18.00
2022-11-03T05:45:57.315Z,18.00
2022-11-03T05:48:40.543Z,18.00
2022-11-03T05:51:21.118Z,18.10
2022-11-03T05:53:53.210Z,18.00
2022-11-03T05:56:22.777Z,18.00
2022-11-03T05:58:51.642Z,18.00
2022-11-03T06:01:44.596Z,18.00
2022-11-03T06:04:40.946Z,18.00
2022-11-03T06:07:28.971Z,18.00
2022-11-03T06:09:55.637Z,18.00
2022-11-03T06:12:23.783Z,18.00
2022-11-03T06:14:51.862Z,18.00
2022-11-03T06:17:28.095Z,18.00
2022-11-03T06:19:57.905Z,18.00
2022-11-03T06:22:29.295Z,18.00
2022-11-03T06:25:02.277Z,18.00
2022-11-03T06:27:33.994Z,18.00
2022-11-03T06:30:28.172Z,18.00
2022-11-03T06:32:58.506Z,16.20
2022-11-03T06:35:25.335Z,15.50
2022-11-03T06:37:52.175Z,15.50
2022-11-03T06:40:22.132Z,16.20
2022-11-03T06:42:48.730Z,16.70
2022-11-03T06:45:24.022Z,17.00
2022-11-03T06:47:54.478Z,17.30
2022-11-03T06:50:31.012Z,17.50
2022-11-03T06:52:59.285Z,17.60
2022-11-03T06:55:29.135Z,17.70
2022-11-03T06:58:00.143Z,17.80
2022-11-03T07:00:34.630Z,17.80
2022-11-03T07:03:13.966Z,17.80
2022-11-03T07:05:40.950Z,17.90
2022-11-03T07:08:38.988Z,17.90
2022-11-03T07:11:23.501Z,17.90
2022-11-03T07:13:57.300Z,18.00
2022-11-03T07:16:37.198Z,18.00
2022-11-03T07:19:09.989Z,18.00
2022-11-03T07:21:41.152Z,18.00
2022-11-03T07:24:23.161Z,18.10
2022-11-03T07:26:57.635Z,18.10
2022-11-03T07:29:28.511Z,18.10
2022-11-03T07:31:58.607Z,18.10
2022-11-03T07:34:31.843Z,18.10
2022-11-03T07:36:59.182Z,18.10
2022-11-03T07:39:35.543Z,18.10
2022-11-03T07:42:32.207Z,18.10
2022-11-03T07:44:58.821Z,18.20
2022-11-03T07:47:27.365Z,18.20
2022-11-03T07:49:56.870Z,18.20
2022-11-03T07:52:25.838Z,18.20
2022-11-03T07:54:57.143Z,18.30
2022-11-03T07:57:32.955Z,18.30
2022-11-03T08:00:11.968Z,18.30
2022-11-03T08:02:58.830Z,18.30
2022-11-03T08:05:25.421Z,18.40
2022-11-03T08:07:52.014Z,18.40
2022-11-03T08:10:18.670Z,18.40
2022-11-03T08:12:45.254Z,18.40
2022-11-03T08:15:11.848Z,18.40
2022-11-03T08:17:38.463Z,18.40
2022-11-03T08:20:05.520Z,18.40
2022-11-03T08:22:32.127Z,18.40
2022-11-03T08:24:58.728Z,18.50
2022-11-03T08:27:25.376Z,18.40
2022-11-03T08:29:53.107Z,18.50
2022-11-03T08:32:19.692Z,18.50
2022-11-03T08:34:46.300Z,18.50
2022-11-03T08:37:17.477Z,18.50
2022-11-03T08:39:44.067Z,18.50
2022-11-03T08:42:10.724Z,18.50
2022-11-03T08:44:37.301Z,18.50
2022-11-03T08:47:04.037Z,18.50
2022-11-03T08:49:30.663Z,18.50
2022-11-03T08:51:57.248Z,18.60
2022-11-03T08:54:23.828Z,18.50
2022-11-03T08:56:50.468Z,18.60
2022-11-03T08:59:18.075Z,18.60
2022-11-03T09:01:45.041Z,18.60
2022-11-03T09:04:11.839Z,18.60
2022-11-03T09:06:38.506Z,18.60
2022-11-03T09:11:51.663Z,18.60
2022-11-03T09:14:18.435Z,18.60
2022-11-03T09:16:45.343Z,18.60
2022-11-03T09:19:11.932Z,18.60
2022-11-03T09:21:38.541Z,18.60
2022-11-03T09:24:05.591Z,18.70
2022-11-03T09:26:32.157Z,18.70
2022-11-03T09:28:58.730Z,18.70
2022-11-03T09:31:28.251Z,18.70
2022-11-03T09:33:54.997Z,18.70
2022-11-03T09:36:21.639Z,18.70
2022-11-03T09:38:48.295Z,18.70
2022-11-03T09:41:26.546Z,18.70
2022-11-03T09:44:02.173Z,18.70
2022-11-03T09:46:29.620Z,18.70
2022-11-03T09:48:56.675Z,18.70
2022-11-03T09:51:25.436Z,18.70
2022-11-03T09:53:52.082Z,18.80
2022-11-03T09:56:22.679Z,18.80
2022-11-03T09:58:54.102Z,18.80
2022-11-03T10:01:21.820Z,18.80
2022-11-03T10:03:48.553Z,18.70
2022-11-03T10:06:17.421Z,18.80
2022-11-03T10:08:46.103Z,18.80
2022-11-03T10:11:13.366Z,18.80
2022-11-03T10:13:43.259Z,18.80
2022-11-03T10:16:13.710Z,18.80
2022-11-03T10:18:40.596Z,18.80
2022-11-03T10:21:20.085Z,18.80
2022-11-03T10:23:46.934Z,18.80
2022-11-03T10:26:19.060Z,18.80
2022-11-03T10:29:04.224Z,18.80
2022-11-03T10:31:39.877Z,18.80
2022-11-03T10:34:24.899Z,18.80
2022-11-03T10:37:21.504Z,18.80
2022-11-03T10:39:50.028Z,18.50
2022-11-03T10:42:20.343Z,18.50
2022-11-03T10:44:47.584Z,18.60
2022-11-03T10:47:33.709Z,18.70
2022-11-03T10:50:19.099Z,18.80
2022-11-03T10:52:45.782Z,18.80
2022-11-03T10:55:12.446Z,18.80
2022-11-03T10:57:39.229Z,18.80
2022-11-03T11:00:09.341Z,18.80
2022-11-03T11:02:36.556Z,18.70
2022-11-03T11:05:19.832Z,18.70
2022-11-03T11:07:47.017Z,18.80
2022-11-03T11:10:25.209Z,18.80
2022-11-03T11:13:22.914Z,18.70
2022-11-03T11:15:55.031Z,18.80
2022-11-03T11:18:27.625Z,18.80
2022-11-03T11:20:55.377Z,18.80
2022-11-03T11:23:27.771Z,18.80
2022-11-03T11:26:09.369Z,18.80
2022-11-03T11:28:35.912Z,18.80
2022-11-03T11:31:22.890Z,18.80
2022-11-03T11:33:49.943Z,18.80
2022-11-03T11:36:22.336Z,18.90
2022-11-03T11:38:49.132Z,18.80
2022-11-03T11:41:15.761Z,18.90
2022-11-03T11:43:42.333Z,18.90
2022-11-03T11:46:33.292Z,18.90
2022-11-03T11:49:02.766Z,18.90
2022-11-03T11:51:36.648Z,18.90
2022-11-03T11:54:19.059Z,18.90
2022-11-03T11:56:47.562Z,18.90
2022-11-03T11:59:24.300Z,18.90
2022-11-03T12:01:55.217Z,18.90
2022-11-03T12:04:23.917Z,18.90
2022-11-03T12:06:50.627Z,19.00
2022-11-03T12:09:27.484Z,18.90
2022-11-03T12:11:56.746Z,18.90
2022-11-03T12:14:26.044Z,18.90
2022-11-03T12:16:53.361Z,18.90
2022-11-03T12:19:35.342Z,18.90
2022-11-03T12:22:03.753Z,18.90
2022-11-03T12:24:33.339Z,18.90
2022-11-03T12:27:00.698Z,18.90
2022-11-03T12:29:27.562Z,18.90
2022-11-03T12:31:54.299Z,18.70
2022-11-03T12:34:21.001Z,18.90
2022-11-03T12:36:51.798Z,18.90
2022-11-03T12:39:21.438Z,18.90
2022-11-03T12:41:48.014Z,18.90
2022-11-03T12:44:14.683Z,20.80
2022-11-03T12:46:41.330Z,18.90
2022-11-03T12:49:08.328Z,18.90
2022-11-03T12:51:34.958Z,18.90
2022-11-03T12:54:01.537Z,18.90
2022-11-03T12:56:28.161Z,18.90
2022-11-03T12:58:54.766Z,18.90
2022-11-03T13:01:22.234Z,18.90
2022-11-03T13:03:49.064Z,18.90
2022-11-03T13:06:15.655Z,19.00
2022-11-03T13:08:42.499Z,19.00
2022-11-03T13:11:29.148Z,18.90
2022-11-03T13:13:55.954Z,19.00
2022-11-03T13:16:23.147Z,18.90
2022-11-03T13:18:49.739Z,18.90
2022-11-03T13:21:16.410Z,18.90
2022-11-03T13:23:43.116Z,18.90
2022-11-03T13:26:09.932Z,18.90
2022-11-03T13:28:36.968Z,18.90
2022-11-03T13:31:03.627Z,18.90
2022-11-03T13:33:30.216Z,18.90
2022-11-03T13:35:56.887Z,18.90
2022-11-03T13:38:23.606Z,18.90
2022-11-03T13:40:57.102Z,19.00
2022-11-03T13:46:17.827Z,19.00
2022-11-03T13:51:31.686Z,19.10
2022-11-03T13:59:31.620Z,19.00
2022-11-03T14:04:45.143Z,19.00
2022-11-03T14:07:11.999Z,19.00
2022-11-03T14:09:38.861Z,18.90
2022-11-03T14:12:24.141Z,19.00
2022-11-03T14:14:50.712Z,18.90
2022-11-03T14:17:17.330Z,18.90
2022-11-03T14:19:47.503Z,18.90
2022-11-03T14:22:18.597Z,18.90
2022-11-03T14:24:45.165Z,18.90
2022-11-03T14:27:12.795Z,18.90
2022-11-03T14:29:39.471Z,18.80
2022-11-03T14:32:06.297Z,18.90
2022-11-03T14:34:33.136Z,18.80
2022-11-03T14:36:59.866Z,18.80
2022-11-03T14:39:26.804Z,18.80
2022-11-03T14:42:05.527Z,18.90
2022-11-03T14:44:38.149Z,18.80
2022-11-03T14:47:07.167Z,18.90
2022-11-03T14:49:34.642Z,19.80
2022-11-03T14:52:02.773Z,18.90
2022-11-03T14:54:31.573Z,18.90
2022-11-03T14:56:59.213Z,18.80
2022-11-03T14:59:26.221Z,18.80
2022-11-03T15:01:54.381Z,18.90
2022-11-03T15:04:22.061Z,18.90
2022-11-03T15:06:49.317Z,17.90
2022-11-03T15:09:16.375Z,18.90
2022-11-03T15:11:44.027Z,18.90
2022-11-03T15:14:11.868Z,18.90
2022-11-03T15:16:38.795Z,18.80
2022-11-03T15:19:06.694Z,18.90
2022-11-03T15:21:34.039Z,18.90
2022-11-03T15:26:47.656Z,18.80
2022-11-03T15:29:14.363Z,18.90
2022-11-03T15:31:46.237Z,18.90
2022-11-03T15:34:14.434Z,18.90
2022-11-03T15:36:41.045Z,18.80
2022-11-03T15:39:08.003Z,18.90
2022-11-03T15:41:34.616Z,18.90
2022-11-03T15:44:01.246Z,18.90
2022-11-03T15:46:27.950Z,18.90
2022-11-03T15:48:56.357Z,18.90
2022-11-03T15:51:23.172Z,18.80
2022-11-03T15:53:54.917Z,18.80
2022-11-03T15:56:23.438Z,18.90
2022-11-03T15:58:50.540Z,18.90
2022-11-03T16:01:17.300Z,18.90
2022-11-03T16:03:43.962Z,18.90
2022-11-03T16:06:10.600Z,18.90
2022-11-03T16:08:37.893Z,18.80
2022-11-03T16:11:04.622Z,18.80
2022-11-03T16:13:31.352Z,18.90
2022-11-03T16:15:58.299Z,18.90
2022-11-03T16:18:25.092Z,18.90
2022-11-03T16:20:51.714Z,19.00
2022-11-03T16:23:18.305Z,19.00
2022-11-03T16:25:44.901Z,19.10
2022-11-03T16:28:11.631Z,19.10
2022-11-03T16:30:38.725Z,19.10
2022-11-03T16:33:05.556Z,19.10
2022-11-03T16:35:32.237Z,19.40
2022-11-03T16:37:59.086Z,19.10
2022-11-03T16:40:25.789Z,19.10
2022-11-03T16:42:52.470Z,19.10
2022-11-03T16:45:23.636Z,19.00
2022-11-03T16:47:50.980Z,19.10
2022-11-03T16:50:18.877Z,19.00
2022-11-03T16:52:47.279Z,19.00
2022-11-03T16:55:14.958Z,19.10
2022-11-03T16:57:42.301Z,19.10
2022-11-03T17:00:15.726Z,19.10
2022-11-03T17:02:42.470Z,19.00
2022-11-03T17:05:09.901Z,19.10
2022-11-03T17:07:36.691Z,19.00
2022-11-03T17:10:04.681Z,19.00
2022-11-03T17:12:31.307Z,19.10
2022-11-03T17:14:58.451Z,19.00
2022-11-03T17:17:25.220Z,19.00
2022-11-03T17:19:51.924Z,19.00
2022-11-03T17:22:20.138Z,19.00
2022-11-03T17:24:46.828Z,19.00
2022-11-03T17:27:17.029Z,19.00
2022-11-03T17:30:05.988Z,19.00
2022-11-03T17:32:37.694Z,19.00
2022-11-03T17:35:14.590Z,19.00
2022-11-03T17:37:41.305Z,19.00
2022-11-03T17:40:15.952Z,19.00
2022-11-03T17:42:50.089Z,19.00
2022-11-03T17:45:21.198Z,19.00
2022-11-03T17:47:49.500Z,19.00
2022-11-03T17:50:18.331Z,19.00
2022-11-03T17:52:46.793Z,19.00
2022-11-03T17:55:16.131Z,19.00
2022-11-03T17:57:43.142Z,19.00
2022-11-03T18:00:15.398Z,19.10
2022-11-03T18:02:42.332Z,19.00
2022-11-03T18:05:14.174Z,19.10
2022-11-03T18:07:43.751Z,19.00
2022-11-03T18:10:10.353Z,19.00
2022-11-03T18:13:01.867Z,19.00
2022-11-03T18:15:29.809Z,18.90
2022-11-03T18:17:56.735Z,18.90
2022-11-03T18:20:29.181Z,18.90
2022-11-03T18:23:18.022Z,18.90
2022-11-03T18:25:45.145Z,19.00
2022-11-03T18:28:12.899Z,19.00
2022-11-03T18:30:40.784Z,19.00
2022-11-03T18:33:15.497Z,19.00
2022-11-03T18:35:42.522Z,19.00
2022-11-03T18:38:13.083Z,19.00
2022-11-03T18:40:40.677Z,19.00
2022-11-03T18:43:16.945Z,19.00
2022-11-03T18:45:43.733Z,19.00
2022-11-03T18:48:14.960Z,19.00
2022-11-03T18:50:41.841Z,18.90
2022-11-03T18:53:12.416Z,18.90
2022-11-03T18:55:39.350Z,18.80
2022-11-03T18:58:06.432Z,18.80
2022-11-03T19:00:33.195Z,18.80
2022-11-03T19:02:59.787Z,18.80
2022-11-03T19:05:26.393Z,18.80
2022-11-03T19:07:53.588Z,18.80
2022-11-03T19:10:22.289Z,18.80
2022-11-03T19:12:48.934Z,18.80
2022-11-03T19:15:25.859Z,18.90
2022-11-03T19:17:57.067Z,18.90
2022-11-03T19:20:25.434Z,18.90
2022-11-03T19:22:52.672Z,19.90
2022-11-03T19:25:19.260Z,19.00
2022-11-03T19:27:47.616Z,19.00
2022-11-03T19:30:18.019Z,19.00
2022-11-03T19:32:51.789Z,19.00
2022-11-03T19:35:31.028Z,19.10
2022-11-03T19:38:12.295Z,19.10
2022-11-03T19:40:59.895Z,19.10
2022-11-03T19:43:29.329Z,19.10
2022-11-03T19:46:00.127Z,19.20
2022-11-03T19:48:31.919Z,19.10
2022-11-03T19:50:58.866Z,19.20
2022-11-03T19:53:28.437Z,19.20
2022-11-03T19:55:56.317Z,19.20
2022-11-03T19:58:25.220Z,19.20
2022-11-03T20:00:52.975Z,19.20
2022-11-03T20:03:20.197Z,19.20
2022-11-03T20:05:49.669Z,19.20
2022-11-03T20:08:19.651Z,19.30
2022-11-03T20:10:47.634Z,19.30
2022-11-03T20:13:16.162Z,19.30
2022-11-03T20:15:42.816Z,19.30
2022-11-03T20:18:13.456Z,19.40
2022-11-03T20:20:41.220Z,19.40
2022-11-03T20:23:15.173Z,19.30
2022-11-03T20:25:42.693Z,19.40
2022-11-03T20:28:17.985Z,19.40
2022-11-03T20:30:44.628Z,19.40
2022-11-03T20:33:16.679Z,19.40
2022-11-03T20:35:45.067Z,19.30
2022-11-03T20:38:13.651Z,19.30
2022-11-03T20:40:41.135Z,19.30
2022-11-03T20:43:21.484Z,19.30
2022-11-03T20:45:48.067Z,19.30
2022-11-03T20:48:14.635Z,19.30
2022-11-03T20:50:41.266Z,19.30
2022-11-03T20:53:16.763Z,19.30
2022-11-03T20:55:44.487Z,19.20
2022-11-03T20:58:16.559Z,19.30
2022-11-03T21:00:45.763Z,19.30
2022-11-03T21:03:45.270Z,19.30
2022-11-03T21:06:06.836Z,19.30
2022-11-03T21:08:33.439Z,19.30
2022-11-03T21:11:20.007Z,19.30
2022-11-03T21:13:46.912Z,19.30
2022-11-03T21:16:31.899Z,19.30
2022-11-03T21:19:17.355Z,19.30
2022-11-03T21:21:44.084Z,19.30
2022-11-03T21:24:11.862Z,19.20
2022-11-03T21:26:40.074Z,19.00
2022-11-03T21:29:06.839Z,19.20
2022-11-03T21:31:33.471Z,19.20
2022-11-03T21:34:00.116Z,19.20
2022-11-03T21:36:26.759Z,19.20
2022-11-03T21:38:53.489Z,19.20
2022-11-03T21:41:38.467Z,19.20
2022-11-03T21:44:17.319Z,19.20
2022-11-03T21:46:44.707Z,19.20
2022-11-03T21:49:30.117Z,19.20
2022-11-03T21:51:57.000Z,19.20
2022-11-03T21:54:23.590Z,19.20
2022-11-03T21:56:50.198Z,19.20
2022-11-03T21:59:16.847Z,19.20
2022-11-03T22:01:43.611Z,19.20
2022-11-03T22:04:11.007Z,19.20
2022-11-03T22:06:37.640Z,19.20
2022-11-03T22:09:04.381Z,19.20
2022-11-03T22:11:30.952Z,19.20
2022-11-03T22:14:01.846Z,19.20
2022-11-03T22:16:37.906Z,19.20
2022-11-03T22:19:25.440Z,19.10
2022-11-03T22:22:10.967Z,19.10
2022-11-03T22:24:56.752Z,19.20
2022-11-03T22:27:23.774Z,19.20
2022-11-03T22:30:16.738Z,19.20
2022-11-03T22:32:43.720Z,19.20
2022-11-03T22:35:30.263Z,19.10
2022-11-03T22:38:08.693Z,19.10
2022-11-03T22:40:55.117Z,19.10
2022-11-03T22:43:41.195Z,19.10
2022-11-03T22:46:09.072Z,19.10
2022-11-03T22:48:36.272Z,19.10
2022-11-03T22:51:13.244Z,19.10
2022-11-03T22:53:58.927Z,19.10
2022-11-03T22:56:27.338Z,19.10
2022-11-03T22:58:54.321Z,19.10
2022-11-03T23:01:23.241Z,19.10
2022-11-03T23:03:50.752Z,19.10
2022-11-03T23:06:25.469Z,19.10
2022-11-03T23:08:54.443Z,19.10
2022-11-03T23:11:23.863Z,19.10
2022-11-03T23:13:59.823Z,19.10
2022-11-03T23:16:34.922Z,19.10
2022-11-03T23:19:20.276Z,19.10
2022-11-03T23:21:50.212Z,19.10
2022-11-03T23:24:39.214Z,19.10
2022-11-03T23:27:09.503Z,19.10
2022-11-03T23:29:36.228Z,19.10
2022-11-03T23:32:03.389Z,19.10
2022-11-03T23:34:30.101Z,19.10
2022-11-03T23:36:58.521Z,19.10
2022-11-03T23:39:25.088Z,19.10
2022-11-03T23:41:51.741Z,19.10
2022-11-03T23:44:18.391Z,19.10
2022-11-03T23:47:04.059Z,19.10
2022-11-03T23:49:30.822Z,19.10
2022-11-03T23:51:57.425Z,19.10
2022-11-03T23:54:24.067Z,19.10
2022-11-03T23:57:09.070Z,19.10
2022-11-03T23:59:35.707Z,19.10
